Hauptseite
METAR-TAF:

METAR-TAF

Flughäfen :

Flughafen Heringsdorf

Heringsdorf, Deutschland

Breite: 53-53N, Länge: 014-09E, Höhe: 28 m

Beobachtung

Neuester Wetterbericht von vor 13 Stunden und 59 Minuten, um 14:20 UTC
Wind 3 kt aus Südwest
Temperatur -1°C
Luftfeuchtigkeit 86%
Luftdruck 1020 hPa
Sichtweite 10 km oder mehr
Durchbrochene Bewölkung in der Höhe von 1000 ft

METAR: EDAH 201420Z 22003KT 9999 BKN010 M01/M03 Q1020

Zeit: 05:19 (04:19 UTC)

Prognose

Neuester Wetterbericht von vor 14 Stunden und 19 Minuten, um 14:00 UTC
Gültige Prognose vom 20 um 15 UTC bis 20 um 24 UTC
Wind 4 kt aus West/Südwest
Sichtweite: 9000 m
Durchbrochene Bewölkung in der Höhe von 900 ft
Zeitweise
vom 20 um 15 UTC bis 20 um 24 UTC
Sichtweite: 4000 m
Durchbrochene Bewölkung in der Höhe von 1500 ft
feuchter Dunst

TAF: EDAH 201400Z 2015/2024 24004KT 9000 BKN009 TEMPO 2015/2024 4000 BR BKN015

Wetterbeobachtungen und Prognosen von mehr als 4000 Flughäfen (METAR und TAF Bericht).

Die verfügbaren Stationen werden durch gelbe und rote Markierungen auf der Karte dargestellt.

Führen Sie die Maus auf sie, um den Namen der Station zu sehen.

Darauf klicken, um die Beobachtung von Wetterbeobachtungen und Prognosen zu sehen.

Um die Karte zu ändern : klicken Sie auf den grünen Tasten mit einem schwarzen Kreuz Zum Vergrößern, auf den grünen Button mit einem Gedankenstrich zu verkleinern, oder auf die grünen Pfeile für benachbarte Karten.


METAR-TAF: